createdAt,value
2019-01-06T00:02:05.296Z,99.90
2019-01-06T00:04:36.115Z,99.90
2019-01-06T00:07:16.291Z,99.90
2019-01-06T00:09:56.643Z,99.90
2019-01-06T00:12:24.983Z,99.90
2019-01-06T00:15:11.677Z,99.90
2019-01-06T00:17:40.026Z,99.90
2019-01-06T00:20:11.670Z,99.90
2019-01-06T00:22:54.753Z,99.90
2019-01-06T00:25:34.753Z,99.90
2019-01-06T00:28:08.860Z,99.90
2019-01-06T00:30:54.049Z,99.90
2019-01-06T00:33:34.730Z,99.90
2019-01-06T00:36:12.997Z,99.90
2019-01-06T00:38:47.197Z,99.90
2019-01-06T00:41:21.709Z,99.90
2019-01-06T00:44:04.996Z,99.90
2019-01-06T00:46:33.316Z,99.90
2019-01-06T00:49:04.310Z,99.90
2019-01-06T00:51:49.316Z,99.90
2019-01-06T00:54:35.563Z,99.90
2019-01-06T00:57:12.704Z,99.90
2019-01-06T00:59:49.903Z,99.90
2019-01-06T01:02:21.455Z,99.90
2019-01-06T01:05:04.574Z,99.90
2019-01-06T01:07:49.558Z,99.90
2019-01-06T01:10:20.405Z,99.90
2019-01-06T01:12:54.854Z,99.90
2019-01-06T01:15:25.658Z,99.90
2019-01-06T01:18:03.270Z,99.90
2019-01-06T01:20:43.772Z,99.90
2019-01-06T01:23:29.155Z,99.90
2019-01-06T01:25:59.944Z,99.90
2019-01-06T01:28:31.279Z,99.90
2019-01-06T01:31:11.346Z,99.90
2019-01-06T01:33:42.871Z,99.90
2019-01-06T01:36:13.976Z,99.70
2019-01-06T01:38:59.135Z,98.90
2019-01-06T01:41:33.017Z,98.20
2019-01-06T01:44:01.396Z,98.40
2019-01-06T01:46:29.796Z,99.20
2019-01-06T01:48:58.155Z,98.90
2019-01-06T01:51:32.426Z,97.90
2019-01-06T01:54:06.756Z,99.10
2019-01-06T01:56:51.788Z,99.70
2019-01-06T01:59:23.290Z,99.00
2019-01-06T02:02:10.135Z,98.80
2019-01-06T02:04:55.009Z,98.90
2019-01-06T02:07:40.024Z,98.60
2019-01-06T02:10:25.349Z,98.50
2019-01-06T02:13:10.688Z,99.10
2019-01-06T02:15:41.562Z,97.90
2019-01-06T02:18:18.694Z,97.90
2019-01-06T02:20:47.019Z,98.10
2019-01-06T02:23:18.034Z,97.70
2019-01-06T02:26:04.587Z,98.60
2019-01-06T02:28:51.317Z,97.80
2019-01-06T02:31:31.499Z,98.30
2019-01-06T02:34:09.118Z,98.70
2019-01-06T02:36:43.155Z,99.10
2019-01-06T02:39:14.510Z,99.40
2019-01-06T02:41:48.286Z,98.90
2019-01-06T02:44:19.645Z,99.10
2019-01-06T02:46:50.474Z,99.30
2019-01-06T02:49:21.885Z,99.70
2019-01-06T02:51:52.711Z,99.90
2019-01-06T02:54:36.197Z,99.90
2019-01-06T02:57:04.465Z,99.90
2019-01-06T02:59:44.739Z,99.90
2019-01-06T03:02:21.881Z,99.90
2019-01-06T03:04:50.171Z,99.90
2019-01-06T03:07:21.385Z,99.90
2019-01-06T03:09:49.709Z,99.90
2019-01-06T03:12:20.563Z,99.90
2019-01-06T03:14:48.886Z,99.90
2019-01-06T03:17:22.779Z,99.90
2019-01-06T03:19:53.973Z,99.90
2019-01-06T03:22:31.332Z,99.90
2019-01-06T03:25:11.994Z,99.90
2019-01-06T03:27:40.278Z,99.90
2019-01-06T03:30:11.683Z,99.90
2019-01-06T03:32:42.444Z,99.90
2019-01-06T03:35:23.175Z,99.90
2019-01-06T03:37:59.969Z,99.90
2019-01-06T03:40:40.464Z,99.90
2019-01-06T03:43:17.758Z,99.90
2019-01-06T03:46:02.677Z,99.90
2019-01-06T03:48:47.396Z,99.90
2019-01-06T03:51:31.050Z,99.90
2019-01-06T03:53:59.301Z,99.90
2019-01-06T03:56:30.756Z,99.90
2019-01-06T03:58:59.064Z,99.90
2019-01-06T04:01:33.408Z,99.90
2019-01-06T04:04:07.745Z,99.90
2019-01-06T04:06:52.729Z,99.90
2019-01-06T04:09:21.051Z,99.90
2019-01-06T04:11:52.121Z,99.90
2019-01-06T04:14:35.278Z,99.90
2019-01-06T04:17:19.943Z,99.90
2019-01-06T04:20:05.028Z,99.90
2019-01-06T04:22:36.478Z,99.90
2019-01-06T04:25:23.270Z,99.90
2019-01-06T04:28:00.454Z,99.90
2019-01-06T04:30:37.657Z,99.90
2019-01-06T04:33:15.076Z,99.50
2019-01-06T04:35:43.404Z,98.20
2019-01-06T04:38:14.990Z,99.10
2019-01-06T04:40:55.198Z,98.50
2019-01-06T04:43:24.557Z,97.80
2019-01-06T04:46:07.908Z,98.70
2019-01-06T04:48:48.441Z,98.70
2019-01-06T04:51:33.155Z,98.00
2019-01-06T04:54:01.392Z,97.60
2019-01-06T04:56:47.703Z,98.00
2019-01-06T04:59:28.119Z,98.20
2019-01-06T05:01:56.571Z,98.50
2019-01-06T05:04:24.853Z,98.60
2019-01-06T05:06:55.753Z,98.60
2019-01-06T05:09:33.259Z,99.50
2019-01-06T05:12:01.562Z,98.80
2019-01-06T05:14:35.878Z,98.80
2019-01-06T05:17:20.851Z,99.50
2019-01-06T05:20:04.625Z,99.10
2019-01-06T05:22:35.722Z,99.60
2019-01-06T05:25:21.079Z,99.60
2019-01-06T05:27:51.960Z,99.00
2019-01-06T05:30:23.220Z,98.30
2019-01-06T05:32:57.539Z,99.60
2019-01-06T05:35:31.443Z,99.70
2019-01-06T05:37:59.743Z,99.90
2019-01-06T05:40:28.081Z,99.40
2019-01-06T05:42:58.888Z,98.80
2019-01-06T05:45:27.161Z,99.40
2019-01-06T05:48:07.637Z,99.20
2019-01-06T05:50:35.859Z,98.60
2019-01-06T05:53:09.776Z,99.30
2019-01-06T05:55:41.071Z,98.60
2019-01-06T05:58:21.154Z,98.60
2019-01-06T06:01:06.121Z,97.40
2019-01-06T06:03:40.124Z,97.00
2019-01-06T06:06:10.995Z,97.60
2019-01-06T06:08:51.298Z,97.40
2019-01-06T06:11:19.622Z,97.20
2019-01-06T06:13:47.913Z,97.30
2019-01-06T06:16:32.862Z,98.70
2019-01-06T06:19:01.208Z,96.80
2019-01-06T06:21:44.843Z,97.40
2019-01-06T06:24:24.902Z,96.50
2019-01-06T06:27:05.608Z,96.40
2019-01-06T06:29:36.652Z,97.40
2019-01-06T06:32:08.058Z,96.40
2019-01-06T06:34:42.356Z,97.20
2019-01-06T06:37:13.608Z,98.00
2019-01-06T06:39:44.642Z,97.40
2019-01-06T06:42:21.846Z,97.60
2019-01-06T06:45:06.539Z,97.50
2019-01-06T06:47:34.831Z,97.20
2019-01-06T06:50:05.398Z,98.50
2019-01-06T06:52:39.848Z,98.10
2019-01-06T06:55:13.850Z,97.40
2019-01-06T06:58:22.735Z,98.40
2019-01-06T07:01:19.725Z,98.00
2019-01-06T07:04:00.334Z,98.00
2019-01-06T07:06:45.007Z,97.70
2019-01-06T07:09:22.622Z,98.00
2019-01-06T07:11:50.973Z,97.70
2019-01-06T07:14:28.209Z,97.80
2019-01-06T07:17:46.123Z,98.50
2019-01-06T07:20:20.493Z,99.00
2019-01-06T07:22:48.781Z,98.20
2019-01-06T07:25:26.050Z,98.70
2019-01-06T07:28:12.209Z,99.10
2019-01-06T07:30:49.668Z,98.80
2019-01-06T07:33:34.541Z,99.30
2019-01-06T07:36:18.275Z,99.40
2019-01-06T07:38:55.190Z,98.40
2019-01-06T07:41:38.546Z,98.70
2019-01-06T07:44:07.416Z,98.30
2019-01-06T07:46:35.815Z,98.50
2019-01-06T07:49:07.395Z,98.00
2019-01-06T07:51:38.783Z,98.70
2019-01-06T07:54:07.047Z,98.90
2019-01-06T07:56:47.585Z,98.50
2019-01-06T07:59:15.956Z,98.30
2019-01-06T08:01:53.396Z,97.90
2019-01-06T08:04:30.360Z,97.40
2019-01-06T08:06:58.679Z,98.20
2019-01-06T08:09:29.535Z,97.10
2019-01-06T08:12:04.191Z,97.50
2019-01-06T08:14:50.129Z,96.50
2019-01-06T08:17:24.477Z,96.60
2019-01-06T08:19:52.776Z,96.70
2019-01-06T08:22:27.374Z,97.00
2019-01-06T08:25:07.442Z,96.30
2019-01-06T08:27:38.370Z,96.60
2019-01-06T08:30:06.683Z,97.00
2019-01-06T08:32:53.217Z,96.70
2019-01-06T08:35:24.571Z,96.60
2019-01-06T08:37:59.085Z,96.70
2019-01-06T08:40:33.048Z,95.90
2019-01-06T08:43:18.113Z,96.20
2019-01-06T08:46:02.852Z,96.20
2019-01-06T08:48:49.534Z,95.80
2019-01-06T08:51:36.171Z,95.30
2019-01-06T08:54:21.277Z,94.80
2019-01-06T08:57:06.018Z,94.50
2019-01-06T08:59:37.325Z,94.90
2019-01-06T09:02:22.337Z,94.00
2019-01-06T09:04:53.232Z,94.90
2019-01-06T09:07:24.561Z,94.00
2019-01-06T09:09:58.336Z,94.40
2019-01-06T09:12:45.250Z,93.30
2019-01-06T09:15:30.129Z,92.70
2019-01-06T09:18:10.778Z,93.00
2019-01-06T09:20:39.338Z,94.10
2019-01-06T09:23:10.366Z,93.80
2019-01-06T09:25:56.528Z,93.40
2019-01-06T09:28:30.646Z,93.30
2019-01-06T09:31:17.377Z,92.60
2019-01-06T09:33:51.497Z,93.30
2019-01-06T09:36:26.239Z,92.40
2019-01-06T09:39:11.522Z,92.70
2019-01-06T09:41:42.410Z,92.70
2019-01-06T09:44:10.685Z,92.80
2019-01-06T09:46:41.538Z,92.80
2019-01-06T09:49:26.532Z,91.80
2019-01-06T09:51:55.701Z,92.20
2019-01-06T09:54:33.545Z,92.30
2019-01-06T09:57:16.962Z,93.30
2019-01-06T10:00:02.362Z,93.00
2019-01-06T10:02:48.945Z,92.70
2019-01-06T10:05:27.425Z,92.60
2019-01-06T10:07:58.918Z,92.40
2019-01-06T10:10:44.516Z,93.40
2019-01-06T10:13:18.324Z,92.90
2019-01-06T10:16:05.771Z,93.10
2019-01-06T10:18:51.411Z,92.00
2019-01-06T10:21:23.076Z,92.00
2019-01-06T10:23:57.077Z,92.10
2019-01-06T10:26:42.162Z,93.00
2019-01-06T10:29:22.852Z,93.70
2019-01-06T10:32:08.169Z,93.50
2019-01-06T10:34:48.815Z,92.80
2019-01-06T10:37:17.397Z,91.80
2019-01-06T10:39:58.115Z,93.30
2019-01-06T10:42:26.583Z,93.40
2019-01-06T10:45:11.586Z,93.20
2019-01-06T10:47:57.092Z,92.20
2019-01-06T10:50:25.706Z,92.70
2019-01-06T10:53:03.192Z,93.00
2019-01-06T10:55:37.792Z,92.60
2019-01-06T10:58:15.640Z,92.30
2019-01-06T11:00:56.634Z,92.00
2019-01-06T11:03:24.932Z,92.20
2019-01-06T11:05:53.444Z,91.60
2019-01-06T11:08:39.763Z,92.50
2019-01-06T11:11:21.058Z,91.10
2019-01-06T11:13:53.124Z,92.50
2019-01-06T11:16:24.958Z,91.90
2019-01-06T11:18:53.189Z,91.60
2019-01-06T11:21:24.516Z,91.50
2019-01-06T11:23:55.692Z,92.80
2019-01-06T11:26:23.993Z,92.70
2019-01-06T11:28:52.579Z,92.10
2019-01-06T11:31:39.497Z,92.20
2019-01-06T11:34:08.290Z,91.30
2019-01-06T11:36:51.813Z,91.90
2019-01-06T11:39:22.875Z,91.50
2019-01-06T11:41:57.638Z,92.30
2019-01-06T11:44:28.419Z,92.40
2019-01-06T11:46:57.685Z,92.00
2019-01-06T11:49:32.354Z,92.60
2019-01-06T11:52:17.503Z,92.30
2019-01-06T11:54:51.801Z,92.20
2019-01-06T11:57:26.908Z,91.90
2019-01-06T12:00:01.919Z,91.60
2019-01-06T12:02:38.771Z,91.80
2019-01-06T12:05:13.355Z,91.50
2019-01-06T12:07:58.404Z,90.90
2019-01-06T12:10:43.284Z,91.70
2019-01-06T12:13:23.994Z,91.10
2019-01-06T12:15:54.877Z,92.70
2019-01-06T12:18:23.195Z,93.10
2019-01-06T12:20:54.301Z,91.90
2019-01-06T12:23:28.642Z,91.40
2019-01-06T12:26:02.771Z,92.10
2019-01-06T12:28:43.234Z,92.10
2019-01-06T12:31:14.067Z,92.80
2019-01-06T12:33:58.801Z,91.70
2019-01-06T12:36:35.799Z,91.90
2019-01-06T12:39:04.626Z,92.10
2019-01-06T12:41:34.137Z,91.30
2019-01-06T12:44:05.265Z,91.40
2019-01-06T12:46:50.271Z,91.10
2019-01-06T12:49:33.489Z,91.10
2019-01-06T12:52:01.763Z,91.40
2019-01-06T12:54:39.199Z,90.80
2019-01-06T12:57:24.307Z,91.80
2019-01-06T13:00:04.509Z,91.20
2019-01-06T13:02:35.930Z,91.70
2019-01-06T13:05:10.095Z,91.80
2019-01-06T13:07:38.344Z,91.20
2019-01-06T13:10:13.558Z,91.30
2019-01-06T13:12:51.175Z,91.40
2019-01-06T13:15:19.445Z,92.60
2019-01-06T13:17:53.841Z,92.60
2019-01-06T13:20:38.485Z,91.30
2019-01-06T13:23:23.617Z,92.00
2019-01-06T13:25:57.996Z,91.80
2019-01-06T13:28:42.964Z,93.40
2019-01-06T13:31:11.342Z,91.70
2019-01-06T13:33:56.021Z,92.30
2019-01-06T13:36:30.078Z,91.80
2019-01-06T13:39:15.307Z,91.90
2019-01-06T13:41:43.674Z,92.10
2019-01-06T13:44:31.473Z,91.90
2019-01-06T13:46:59.787Z,92.00
2019-01-06T13:49:28.099Z,91.80
2019-01-06T13:52:01.933Z,91.90
2019-01-06T13:54:47.997Z,92.00
2019-01-06T13:57:16.395Z,91.70
2019-01-06T13:59:44.669Z,91.70
2019-01-06T14:02:25.114Z,92.70
2019-01-06T14:04:53.435Z,91.70
2019-01-06T14:07:30.529Z,91.00
2019-01-06T14:10:15.685Z,92.40
2019-01-06T14:12:44.125Z,92.50
2019-01-06T14:15:27.863Z,93.10
2019-01-06T14:17:59.329Z,91.50
2019-01-06T14:20:42.791Z,91.90
2019-01-06T14:23:19.819Z,91.70
2019-01-06T14:25:51.182Z,92.60
2019-01-06T14:28:36.192Z,92.80
2019-01-06T14:31:07.055Z,91.80
2019-01-06T14:33:44.138Z,92.60
2019-01-06T14:36:21.121Z,92.20
2019-01-06T14:39:10.594Z,92.70
2019-01-06T14:41:51.471Z,93.20
2019-01-06T14:44:32.109Z,93.40
2019-01-06T14:47:09.557Z,92.50
2019-01-06T14:49:56.356Z,92.00
2019-01-06T14:52:33.518Z,93.10
2019-01-06T14:55:01.989Z,92.10
2019-01-06T14:57:33.593Z,92.50
2019-01-06T15:00:05.328Z,93.60
2019-01-06T15:02:36.681Z,93.60
2019-01-06T15:05:14.126Z,93.00
2019-01-06T15:08:00.818Z,93.40
2019-01-06T15:10:29.514Z,93.00
2019-01-06T15:13:07.217Z,92.70
2019-01-06T15:15:52.821Z,93.00
2019-01-06T15:18:21.659Z,92.20
2019-01-06T15:21:03.601Z,91.80
2019-01-06T15:23:32.124Z,92.30
2019-01-06T15:26:17.595Z,92.20
2019-01-06T15:28:53.278Z,94.70
2019-01-06T15:31:40.549Z,93.00
2019-01-06T15:34:25.669Z,92.70
2019-01-06T15:36:54.523Z,92.70
2019-01-06T15:39:23.409Z,92.40
2019-01-06T15:41:57.990Z,93.70
2019-01-06T15:44:44.626Z,93.60
2019-01-06T15:47:16.095Z,93.40
2019-01-06T15:49:47.876Z,92.70
2019-01-06T15:52:22.164Z,93.20
2019-01-06T15:55:06.884Z,92.90
2019-01-06T15:57:41.471Z,94.20
2019-01-06T16:00:26.316Z,94.40
2019-01-06T16:03:09.545Z,94.20
2019-01-06T16:05:41.060Z,93.80
2019-01-06T16:08:18.206Z,93.40
2019-01-06T16:11:04.916Z,93.90
2019-01-06T16:13:38.992Z,93.50
2019-01-06T16:16:25.567Z,93.10
2019-01-06T16:18:53.975Z,94.10
2019-01-06T16:21:28.554Z,93.60
2019-01-06T16:24:13.261Z,93.90
2019-01-06T16:26:50.363Z,93.60
2019-01-06T16:29:34.012Z,93.70
2019-01-06T16:32:14.307Z,93.30
2019-01-06T16:34:59.118Z,93.40
2019-01-06T16:37:27.448Z,93.60
2019-01-06T16:40:07.683Z,93.50
2019-01-06T16:42:38.492Z,93.60
2019-01-06T16:45:15.936Z,94.40
2019-01-06T16:47:59.155Z,93.90
2019-01-06T16:50:30.745Z,93.70
2019-01-06T16:53:05.009Z,93.50
2019-01-06T16:55:45.568Z,93.00
2019-01-06T16:58:13.871Z,92.80
2019-01-06T17:00:50.991Z,92.40
2019-01-06T17:03:19.315Z,92.60
2019-01-06T17:05:50.762Z,92.90
2019-01-06T17:08:37.247Z,92.50
2019-01-06T17:11:14.670Z,91.60
2019-01-06T17:13:45.607Z,92.40
2019-01-06T17:16:13.904Z,93.00
2019-01-06T17:18:42.191Z,93.30
2019-01-06T17:21:27.446Z,92.70
2019-01-06T17:24:04.473Z,93.60
2019-01-06T17:26:44.588Z,93.30
2019-01-06T17:29:25.166Z,94.00
2019-01-06T17:32:08.547Z,93.50
2019-01-06T17:34:39.900Z,93.20
2019-01-06T17:37:24.730Z,93.00
2019-01-06T17:40:10.005Z,92.80
2019-01-06T17:42:38.503Z,93.60
2019-01-06T17:45:25.024Z,93.20
2019-01-06T17:47:56.009Z,92.10
2019-01-06T17:50:40.947Z,92.90
2019-01-06T17:53:21.337Z,93.00
2019-01-06T17:55:49.711Z,92.50
2019-01-06T17:58:23.963Z,93.20
2019-01-06T18:00:55.205Z,93.10
2019-01-06T18:03:40.029Z,93.00
2019-01-06T18:06:20.771Z,93.20
2019-01-06T18:08:49.185Z,93.10
2019-01-06T18:11:23.865Z,93.30
2019-01-06T18:14:08.888Z,92.60
2019-01-06T18:16:40.468Z,91.90
2019-01-06T18:19:25.710Z,92.20
2019-01-06T18:22:04.438Z,91.90
2019-01-06T18:24:49.419Z,92.90
2019-01-06T18:27:32.728Z,92.10
2019-01-06T18:30:07.050Z,91.70
2019-01-06T18:32:50.724Z,92.10
2019-01-06T18:35:19.135Z,92.60
2019-01-06T18:38:04.397Z,92.10
2019-01-06T18:40:49.622Z,91.50
2019-01-06T18:43:33.450Z,90.90
2019-01-06T18:46:19.119Z,91.50
2019-01-06T18:48:53.367Z,92.20
2019-01-06T18:51:37.206Z,91.60
2019-01-06T18:54:11.821Z,91.90
2019-01-06T18:56:56.101Z,91.40
2019-01-06T18:59:33.577Z,91.20
2019-01-06T19:02:02.045Z,90.50
2019-01-06T19:04:47.192Z,91.00
2019-01-06T19:07:18.073Z,91.30
2019-01-06T19:09:49.304Z,90.60
2019-01-06T19:12:17.694Z,90.60
2019-01-06T19:15:02.762Z,91.10
2019-01-06T19:17:43.017Z,90.70
2019-01-06T19:20:20.289Z,89.40
2019-01-06T19:22:48.725Z,90.60
2019-01-06T19:25:33.681Z,91.00
2019-01-06T19:28:10.751Z,91.00
2019-01-06T19:30:55.925Z,90.20
2019-01-06T19:33:40.694Z,90.60
2019-01-06T19:36:12.010Z,89.80
2019-01-06T19:38:55.441Z,90.60
2019-01-06T19:41:32.804Z,90.70
2019-01-06T19:44:13.027Z,90.20
2019-01-06T19:46:57.746Z,89.70
2019-01-06T19:49:28.758Z,90.30
2019-01-06T19:52:13.111Z,90.10
2019-01-06T19:54:40.051Z,90.50
2019-01-06T19:57:11.327Z,88.20
2019-01-06T19:59:51.701Z,89.30
2019-01-06T20:02:20.050Z,90.10
2019-01-06T20:04:51.249Z,89.20
2019-01-06T20:07:22.431Z,87.50
2019-01-06T20:10:02.812Z,89.30
2019-01-06T20:12:43.719Z,88.50
2019-01-06T20:15:14.942Z,88.60
2019-01-06T20:17:49.552Z,88.90
2019-01-06T20:20:21.097Z,88.00
2019-01-06T20:22:49.534Z,87.40
2019-01-06T20:25:18.109Z,87.30
2019-01-06T20:27:49.214Z,86.20
2019-01-06T20:30:21.344Z,88.00
2019-01-06T20:33:06.523Z,90.40
2019-01-06T20:35:37.904Z,89.50
2019-01-06T20:38:15.073Z,88.70
2019-01-06T20:40:43.732Z,90.30
2019-01-06T20:43:20.055Z,88.60
2019-01-06T20:45:54.403Z,90.20
2019-01-06T20:48:29.257Z,90.30
2019-01-06T20:51:15.888Z,87.60
2019-01-06T20:53:47.358Z,89.40
2019-01-06T20:56:18.400Z,88.20
2019-01-06T20:58:46.717Z,88.50
2019-01-06T21:01:26.788Z,86.90
2019-01-06T21:03:55.219Z,90.10
2019-01-06T21:06:29.396Z,87.80
2019-01-06T21:09:14.316Z,89.00
2019-01-06T21:11:59.573Z,89.10
2019-01-06T21:14:37.156Z,87.50
2019-01-06T21:17:14.891Z,86.70
2019-01-06T21:19:46.396Z,89.20
2019-01-06T21:22:14.833Z,86.70
2019-01-06T21:24:49.273Z,89.50
2019-01-06T21:27:34.713Z,86.80
2019-01-06T21:30:18.984Z,88.20
2019-01-06T21:32:50.024Z,88.80
2019-01-06T21:35:18.406Z,88.80
2019-01-06T21:38:01.926Z,87.80
2019-01-06T21:40:46.922Z,89.10
2019-01-06T21:43:32.157Z,86.90
2019-01-06T21:46:00.501Z,90.00
2019-01-06T21:48:45.779Z,88.00
2019-01-06T21:51:20.295Z,89.30
2019-01-06T21:54:04.104Z,89.70
2019-01-06T21:56:34.013Z,88.00
2019-01-06T21:59:05.280Z,90.30
2019-01-06T22:01:36.615Z,90.20
2019-01-06T22:04:16.738Z,90.00
2019-01-06T22:06:54.129Z,88.40
2019-01-06T22:09:25.325Z,90.00
2019-01-06T22:12:10.590Z,89.50
2019-01-06T22:14:56.924Z,89.30
2019-01-06T22:17:31.060Z,89.50
2019-01-06T22:19:59.400Z,89.00
2019-01-06T22:22:27.688Z,88.30
2019-01-06T22:25:05.174Z,86.70
2019-01-06T22:27:36.448Z,88.30
2019-01-06T22:30:19.588Z,88.30
2019-01-06T22:32:47.881Z,86.40
2019-01-06T22:35:25.039Z,88.90
2019-01-06T22:37:55.888Z,88.00
2019-01-06T22:40:24.168Z,89.60
2019-01-06T22:43:01.176Z,88.80
2019-01-06T22:45:35.062Z,87.30
2019-01-06T22:48:18.579Z,87.60
2019-01-06T22:50:52.553Z,86.60
2019-01-06T22:53:26.853Z,86.20
2019-01-06T22:56:04.015Z,88.90
2019-01-06T22:58:41.424Z,87.30
2019-01-06T23:01:12.547Z,86.60
2019-01-06T23:03:57.999Z,88.00
2019-01-06T23:06:26.328Z,87.90
2019-01-06T23:09:11.452Z,87.20
2019-01-06T23:11:43.080Z,87.00
2019-01-06T23:14:17.418Z,87.60
2019-01-06T23:16:45.845Z,88.60
2019-01-06T23:19:14.111Z,89.10
2019-01-06T23:21:57.467Z,86.90
2019-01-06T23:24:38.107Z,87.40
2019-01-06T23:27:15.635Z,88.60
2019-01-06T23:29:43.980Z,88.10
2019-01-06T23:32:28.613Z,89.40
2019-01-06T23:34:59.479Z,88.80
2019-01-06T23:37:44.829Z,88.30
2019-01-06T23:40:29.434Z,89.60
2019-01-06T23:43:00.853Z,90.80
2019-01-06T23:45:31.677Z,90.20
2019-01-06T23:48:16.626Z,90.10
2019-01-06T23:50:59.806Z,89.30
2019-01-06T23:53:40.159Z,90.00
2019-01-06T23:56:20.198Z,89.90
2019-01-06T23:58:48.557Z,90.30
